createdAt,value
2023-03-21T00:01:55.827Z,25.35
2023-03-21T00:04:25.653Z,19.98
2023-03-21T00:06:54.734Z,20.33
2023-03-21T00:09:23.514Z,18.92
2023-03-21T00:11:52.473Z,23.10
2023-03-21T00:14:23.823Z,19.05
2023-03-21T00:16:53.333Z,20.02
2023-03-21T00:19:26.720Z,19.15
2023-03-21T00:22:07.128Z,17.75
2023-03-21T00:24:37.516Z,17.08
2023-03-21T00:27:42.865Z,19.58
2023-03-21T00:29:57.095Z,16.05
2023-03-21T00:32:25.588Z,17.98
2023-03-21T00:35:23.335Z,19.13
2023-03-21T00:37:46.841Z,15.73
2023-03-21T00:40:25.680Z,16.67
2023-03-21T00:42:56.281Z,16.35
2023-03-21T00:45:24.970Z,18.02
2023-03-21T00:47:53.976Z,17.48
2023-03-21T00:50:25.041Z,15.82
2023-03-21T00:52:53.776Z,18.85
2023-03-21T00:55:22.520Z,13.02
2023-03-21T00:58:01.283Z,15.13
2023-03-21T01:00:30.993Z,16.05
2023-03-21T01:03:21.384Z,15.63
2023-03-21T01:06:07.592Z,12.32
2023-03-21T01:08:52.291Z,16.38
2023-03-21T01:11:23.217Z,17.23
2023-03-21T01:13:56.276Z,14.80
2023-03-21T01:16:31.273Z,15.30
2023-03-21T01:19:02.146Z,14.52
2023-03-21T01:21:34.730Z,16.13
2023-03-21T01:24:03.337Z,14.20
2023-03-21T01:26:31.766Z,15.43
2023-03-21T01:29:00.373Z,17.20
2023-03-21T01:31:29.197Z,15.23
2023-03-21T01:33:58.124Z,13.18
2023-03-21T01:36:27.774Z,16.98
2023-03-21T01:39:07.461Z,15.68
2023-03-21T01:41:43.018Z,15.43
2023-03-21T01:44:20.533Z,14.52
2023-03-21T01:47:12.526Z,17.25
2023-03-21T01:49:50.963Z,16.50
2023-03-21T01:52:43.000Z,17.23
2023-03-21T01:55:19.510Z,15.50
2023-03-21T01:58:12.895Z,15.77
2023-03-21T02:01:11.837Z,17.02
2023-03-21T02:03:52.146Z,17.88
2023-03-21T02:06:37.730Z,17.27
2023-03-21T02:09:17.704Z,15.63
2023-03-21T02:11:48.137Z,15.55
2023-03-21T02:14:28.928Z,18.23
2023-03-21T02:17:23.581Z,16.95
2023-03-21T02:20:26.988Z,20.77
2023-03-21T02:26:41.126Z,16.95
2023-03-21T02:29:33.998Z,17.08
2023-03-21T02:32:22.637Z,17.83
2023-03-21T02:35:14.914Z,20.42
2023-03-21T02:37:58.602Z,19.17
2023-03-21T02:40:35.653Z,19.92
2023-03-21T02:43:20.851Z,17.35
2023-03-21T02:45:58.556Z,16.73
2023-03-21T02:48:48.186Z,17.45
2023-03-21T02:51:22.741Z,18.85
2023-03-21T02:54:24.542Z,19.52
2023-03-21T02:56:47.367Z,21.45
2023-03-21T02:59:17.165Z,19.77
2023-03-21T03:01:46.174Z,24.88
2023-03-21T03:04:22.223Z,18.35
2023-03-21T03:07:13.218Z,20.20
2023-03-21T03:09:59.424Z,20.63
2023-03-21T03:12:40.300Z,20.70
2023-03-21T03:15:22.105Z,17.35
2023-03-21T03:17:55.679Z,19.65
2023-03-21T03:20:31.829Z,18.75
2023-03-21T03:23:09.026Z,19.77
2023-03-21T03:25:44.187Z,21.20
2023-03-21T03:28:19.682Z,17.20
2023-03-21T03:31:07.393Z,19.38
2023-03-21T03:33:49.928Z,19.23
2023-03-21T03:36:31.601Z,18.40
2023-03-21T03:39:06.852Z,17.20
2023-03-21T03:42:05.855Z,19.73
2023-03-21T03:44:38.263Z,14.93
2023-03-21T03:47:17.519Z,17.23
2023-03-21T03:49:53.832Z,16.77
2023-03-21T03:52:26.281Z,19.48
2023-03-21T03:55:04.309Z,15.88
2023-03-21T03:57:39.357Z,20.17
2023-03-21T04:00:12.018Z,15.80
2023-03-21T04:02:47.181Z,21.50
2023-03-21T04:05:21.567Z,18.80
2023-03-21T04:07:51.475Z,19.65
2023-03-21T04:10:26.832Z,20.95
2023-03-21T04:12:57.102Z,19.50
2023-03-21T04:15:31.824Z,22.55
2023-03-21T04:18:07.803Z,21.27
2023-03-21T04:20:37.585Z,22.17
2023-03-21T04:23:09.125Z,20.88
2023-03-21T04:25:47.610Z,20.83
2023-03-21T04:28:24.308Z,24.25
2023-03-21T04:31:05.160Z,20.60
2023-03-21T04:33:48.013Z,20.88
2023-03-21T04:36:26.754Z,21.48
2023-03-21T04:39:01.062Z,22.73
2023-03-21T04:41:31.000Z,18.92
2023-03-21T04:44:01.810Z,21.25
2023-03-21T04:46:30.550Z,22.27
2023-03-21T04:48:59.431Z,23.08
2023-03-21T04:51:28.210Z,20.92
2023-03-21T04:53:58.864Z,20.77
2023-03-21T04:56:32.896Z,20.45
2023-03-21T04:59:07.462Z,20.75
2023-03-21T05:01:36.624Z,19.95
2023-03-21T05:04:06.189Z,21.85
2023-03-21T05:06:37.219Z,20.48
2023-03-21T05:09:07.176Z,24.63
2023-03-21T05:11:39.044Z,25.35
2023-03-21T05:14:12.529Z,23.13
2023-03-21T05:16:48.787Z,22.88
2023-03-21T05:19:19.296Z,23.20
2023-03-21T05:21:50.610Z,21.02
2023-03-21T05:24:23.647Z,20.58
2023-03-21T05:26:56.394Z,19.15
2023-03-21T05:29:31.826Z,21.00
2023-03-21T05:32:04.213Z,22.45
2023-03-21T05:34:33.404Z,21.77
2023-03-21T05:37:03.616Z,23.45
2023-03-21T05:39:47.500Z,21.23
2023-03-21T05:42:23.839Z,19.38
2023-03-21T05:44:53.931Z,23.15
2023-03-21T05:47:28.204Z,25.95
2023-03-21T05:49:59.221Z,22.58
2023-03-21T05:52:29.857Z,21.55
2023-03-21T05:54:59.955Z,20.98
2023-03-21T05:57:30.099Z,19.90
2023-03-21T06:02:44.166Z,23.13
2023-03-21T06:05:39.453Z,22.02
2023-03-21T06:08:14.531Z,22.23
2023-03-21T06:10:47.007Z,23.17
2023-03-21T06:13:16.004Z,23.70
2023-03-21T06:15:46.846Z,23.65
2023-03-21T06:18:20.612Z,25.13
2023-03-21T06:20:57.912Z,22.98
2023-03-21T06:23:27.249Z,24.83
2023-03-21T06:25:56.646Z,24.00
2023-03-21T06:28:27.453Z,27.15
2023-03-21T06:30:57.572Z,25.48
2023-03-21T06:33:28.711Z,23.77
2023-03-21T06:35:59.316Z,25.38
2023-03-21T06:38:28.462Z,23.53
2023-03-21T06:40:57.198Z,25.50
2023-03-21T06:43:27.098Z,24.42
2023-03-21T06:45:57.945Z,22.63
2023-03-21T06:48:27.893Z,23.23
2023-03-21T06:50:57.646Z,28.27
2023-03-21T06:53:28.798Z,23.60
2023-03-21T06:56:17.809Z,25.58
2023-03-21T06:58:48.057Z,26.10
2023-03-21T07:01:41.048Z,27.50
2023-03-21T07:04:11.134Z,21.35
2023-03-21T07:06:41.397Z,22.88
2023-03-21T07:09:10.193Z,23.02
2023-03-21T07:11:39.689Z,24.33
2023-03-21T07:14:08.209Z,25.60
2023-03-21T07:16:37.037Z,22.50
2023-03-21T07:19:07.380Z,27.15
2023-03-21T07:21:36.198Z,25.65
2023-03-21T07:24:05.844Z,26.60
2023-03-21T07:26:34.550Z,26.00
2023-03-21T07:29:05.172Z,23.48
2023-03-21T07:31:34.227Z,22.70
2023-03-21T07:34:03.912Z,21.00
2023-03-21T07:36:34.180Z,20.98
2023-03-21T07:39:02.782Z,20.33
2023-03-21T07:41:31.548Z,20.65
2023-03-21T07:44:12.822Z,16.43
2023-03-21T07:46:41.500Z,19.73
2023-03-21T07:49:10.314Z,17.58
2023-03-21T07:51:40.839Z,18.63
2023-03-21T07:54:09.754Z,17.33
2023-03-21T07:56:38.589Z,16.92
2023-03-21T07:59:08.413Z,18.48
2023-03-21T08:01:37.616Z,17.55
2023-03-21T08:04:07.537Z,18.27
2023-03-21T08:06:36.479Z,20.88
2023-03-21T08:09:07.142Z,17.55
2023-03-21T08:11:36.287Z,18.95
2023-03-21T08:14:05.071Z,20.20
2023-03-21T08:16:33.525Z,20.60
2023-03-21T08:19:02.158Z,28.00
2023-03-21T08:21:30.823Z,20.33
2023-03-21T08:23:59.656Z,23.02
2023-03-21T08:26:32.299Z,19.20
2023-03-21T08:29:00.993Z,19.45
2023-03-21T08:31:29.773Z,20.92
2023-03-21T08:33:58.341Z,20.17
2023-03-21T08:36:27.039Z,19.13
2023-03-21T08:39:04.573Z,19.30
2023-03-21T08:41:35.863Z,23.15
2023-03-21T08:44:05.961Z,19.98
2023-03-21T08:46:35.103Z,20.40
2023-03-21T08:49:03.907Z,19.95
2023-03-21T08:51:33.936Z,20.35
2023-03-21T08:54:03.247Z,20.88
2023-03-21T08:56:32.042Z,19.02
2023-03-21T08:59:03.049Z,20.98
2023-03-21T09:01:32.750Z,21.77
2023-03-21T09:04:01.360Z,19.98
2023-03-21T09:06:30.814Z,19.30
2023-03-21T09:08:59.954Z,18.13
2023-03-21T09:11:29.286Z,18.23
2023-03-21T09:13:57.695Z,16.20
2023-03-21T09:16:27.859Z,15.23
2023-03-21T09:18:59.254Z,19.02
2023-03-21T09:21:29.044Z,18.80
2023-03-21T09:24:00.065Z,20.80
2023-03-21T09:26:29.086Z,19.02
2023-03-21T09:28:58.897Z,16.80
2023-03-21T09:31:29.556Z,18.75
2023-03-21T09:33:58.333Z,17.50
2023-03-21T09:36:27.509Z,16.00
2023-03-21T09:38:57.145Z,16.63
2023-03-21T09:41:38.460Z,17.02
2023-03-21T09:44:20.292Z,18.90
2023-03-21T09:46:55.150Z,18.48
2023-03-21T09:49:31.341Z,14.95
2023-03-21T09:52:03.770Z,16.55
2023-03-21T09:54:37.115Z,15.10
2023-03-21T09:57:19.809Z,19.13
2023-03-21T09:59:53.772Z,16.52
2023-03-21T10:02:36.175Z,15.60
2023-03-21T10:07:44.809Z,15.63
2023-03-21T10:10:18.748Z,17.27
2023-03-21T10:12:49.105Z,15.73
2023-03-21T10:15:20.456Z,21.48
2023-03-21T10:17:56.047Z,18.15
2023-03-21T10:20:26.619Z,17.52
2023-03-21T10:22:57.727Z,16.98
2023-03-21T10:25:32.976Z,15.95
2023-03-21T10:28:02.812Z,16.00
2023-03-21T10:30:38.382Z,15.38
2023-03-21T10:33:14.273Z,15.68
2023-03-21T10:35:46.752Z,14.00
2023-03-21T10:38:18.929Z,16.17
2023-03-21T10:40:47.725Z,14.98
2023-03-21T10:43:38.640Z,17.90
2023-03-21T10:46:09.848Z,15.43
2023-03-21T10:48:46.441Z,15.88
2023-03-21T10:51:20.384Z,15.48
2023-03-21T10:53:53.345Z,14.75
2023-03-21T10:56:27.837Z,16.27
2023-03-21T10:59:00.158Z,14.68
2023-03-21T11:01:33.636Z,12.75
2023-03-21T11:04:10.188Z,14.57
2023-03-21T11:06:42.739Z,15.35
2023-03-21T11:09:16.800Z,12.68
2023-03-21T11:11:52.732Z,16.67
2023-03-21T11:14:37.947Z,14.82
2023-03-21T11:17:21.862Z,12.98
2023-03-21T11:19:53.665Z,13.35
2023-03-21T11:22:25.055Z,13.52
2023-03-21T11:24:55.879Z,15.32
2023-03-21T11:27:29.504Z,12.85
2023-03-21T11:30:00.062Z,15.65
2023-03-21T11:32:34.404Z,12.60
2023-03-21T11:35:08.054Z,13.02
2023-03-21T11:37:46.364Z,11.25
2023-03-21T11:40:23.439Z,14.50
2023-03-21T11:42:53.978Z,10.90
2023-03-21T11:45:24.920Z,16.77
2023-03-21T11:47:57.121Z,11.10
2023-03-21T11:50:34.379Z,9.30
2023-03-21T11:53:18.338Z,9.27
2023-03-21T11:55:58.615Z,10.50
2023-03-21T11:58:37.629Z,11.45
2023-03-21T12:01:14.371Z,11.93
2023-03-21T12:04:04.249Z,10.73
2023-03-21T12:06:38.660Z,10.15
2023-03-21T12:09:31.180Z,8.40
2023-03-21T12:12:11.006Z,10.02
2023-03-21T12:14:49.011Z,10.52
2023-03-21T12:17:33.153Z,9.35
2023-03-21T12:20:15.207Z,12.02
2023-03-21T12:23:00.415Z,9.95
2023-03-21T12:25:34.177Z,10.75
2023-03-21T12:28:19.096Z,12.65
2023-03-21T12:31:06.789Z,11.93
2023-03-21T12:33:49.933Z,11.40
2023-03-21T12:36:32.365Z,11.57
2023-03-21T12:39:13.721Z,12.48
2023-03-21T12:41:46.390Z,9.93
2023-03-21T12:44:18.354Z,9.65
2023-03-21T12:49:23.773Z,10.38
2023-03-21T12:51:57.013Z,12.30
2023-03-21T12:54:31.767Z,11.50
2023-03-21T12:57:06.072Z,11.50
2023-03-21T12:59:40.461Z,11.98
2023-03-21T13:02:19.791Z,10.55
2023-03-21T13:05:01.472Z,11.98
2023-03-21T13:07:35.022Z,12.60
2023-03-21T13:10:15.145Z,11.65
2023-03-21T13:12:50.811Z,11.85
2023-03-21T13:15:36.595Z,10.57
2023-03-21T13:18:17.839Z,11.40
2023-03-21T13:20:50.811Z,9.60
2023-03-21T13:23:20.671Z,9.90
2023-03-21T13:25:53.881Z,9.35
2023-03-21T13:28:27.059Z,9.40
2023-03-21T13:31:20.092Z,6.90
2023-03-21T13:33:51.402Z,6.65
2023-03-21T13:36:26.064Z,7.40
2023-03-21T13:39:00.713Z,8.52
2023-03-21T13:41:34.350Z,10.23
2023-03-21T13:44:21.138Z,6.72
2023-03-21T13:46:56.431Z,7.63
2023-03-21T13:49:32.863Z,6.85
2023-03-21T13:52:04.640Z,9.57
2023-03-21T13:54:51.254Z,8.55
2023-03-21T13:57:41.868Z,10.07
2023-03-21T14:00:24.342Z,9.77
2023-03-21T14:03:00.032Z,9.35
2023-03-21T14:05:29.847Z,8.85
2023-03-21T14:08:12.739Z,7.28
2023-03-21T14:10:46.467Z,9.98
2023-03-21T14:13:21.607Z,7.00
2023-03-21T14:15:56.425Z,8.68
2023-03-21T14:18:28.230Z,8.57
2023-03-21T14:21:07.035Z,7.18
2023-03-21T14:23:40.027Z,7.20
2023-03-21T14:26:12.490Z,7.38
2023-03-21T14:28:49.761Z,7.32
2023-03-21T14:31:20.102Z,9.32
2023-03-21T14:33:54.178Z,8.20
2023-03-21T14:36:26.664Z,8.50
2023-03-21T14:39:05.507Z,7.70
2023-03-21T14:41:35.760Z,7.63
2023-03-21T14:44:16.042Z,7.32
2023-03-21T14:46:45.697Z,7.75
2023-03-21T14:49:20.381Z,10.93
2023-03-21T14:51:49.429Z,8.18
2023-03-21T14:54:18.984Z,6.65
2023-03-21T14:56:52.689Z,6.32
2023-03-21T14:59:27.607Z,6.80
2023-03-21T15:01:56.682Z,5.65
2023-03-21T15:04:27.684Z,5.82
2023-03-21T15:06:59.261Z,5.50
2023-03-21T15:09:31.466Z,5.45
2023-03-21T15:12:00.751Z,4.68
2023-03-21T15:14:34.315Z,4.95
2023-03-21T15:17:07.665Z,4.47
2023-03-21T15:19:39.296Z,3.95
2023-03-21T15:22:14.383Z,9.73
2023-03-21T15:24:48.861Z,4.32
2023-03-21T15:27:20.087Z,5.40
2023-03-21T15:29:54.332Z,6.00
2023-03-21T15:32:25.816Z,4.32
2023-03-21T15:34:56.670Z,4.13
2023-03-21T15:37:28.918Z,4.47
2023-03-21T15:42:46.523Z,5.18
2023-03-21T15:45:23.135Z,5.85
2023-03-21T15:47:54.840Z,3.47
2023-03-21T15:50:29.653Z,5.18
2023-03-21T15:53:01.816Z,5.65
2023-03-21T15:55:35.721Z,6.28
2023-03-21T15:58:08.065Z,4.30
2023-03-21T16:00:42.194Z,5.57
2023-03-21T16:03:18.389Z,5.35
2023-03-21T16:06:04.484Z,6.32
2023-03-21T16:08:36.013Z,5.30
2023-03-21T16:11:09.835Z,6.22
2023-03-21T16:13:38.412Z,6.28
2023-03-21T16:16:12.436Z,4.70
2023-03-21T16:18:41.581Z,5.10
2023-03-21T16:21:13.322Z,6.20
2023-03-21T16:23:43.008Z,7.20
2023-03-21T16:26:14.355Z,7.65
2023-03-21T16:28:43.241Z,6.78
2023-03-21T16:31:17.274Z,8.32
2023-03-21T16:33:46.751Z,6.38
2023-03-21T16:36:18.012Z,6.47
2023-03-21T16:38:47.700Z,5.28
2023-03-21T16:41:17.635Z,7.22
2023-03-21T16:43:46.623Z,8.10
2023-03-21T16:46:18.462Z,7.95
2023-03-21T16:48:49.518Z,9.50
2023-03-21T16:51:20.569Z,6.10
2023-03-21T16:53:50.117Z,7.63
2023-03-21T16:56:21.777Z,5.35
2023-03-21T16:58:50.727Z,8.02
2023-03-21T17:01:26.159Z,6.07
2023-03-21T17:03:55.750Z,7.07
2023-03-21T17:06:25.924Z,7.78
2023-03-21T17:08:55.276Z,6.25
2023-03-21T17:11:27.484Z,9.30
2023-03-21T17:13:56.621Z,19.40
2023-03-21T17:16:27.685Z,20.42
2023-03-21T17:18:56.733Z,14.98
2023-03-21T17:21:27.240Z,20.25
2023-03-21T17:23:56.974Z,13.02
2023-03-21T17:26:28.021Z,13.23
2023-03-21T17:28:57.523Z,17.90
2023-03-21T17:31:29.454Z,28.83
2023-03-21T17:33:58.405Z,26.63
2023-03-21T17:36:31.558Z,13.30
2023-03-21T17:39:00.262Z,13.63
2023-03-21T17:41:29.109Z,25.13
2023-03-21T17:43:57.810Z,31.75
2023-03-21T17:46:30.005Z,25.58
2023-03-21T17:48:58.721Z,23.35
2023-03-21T17:51:30.594Z,22.70
2023-03-21T17:56:30.144Z,25.50
2023-03-21T17:59:01.097Z,24.50
2023-03-21T18:01:31.982Z,29.35
2023-03-21T18:04:03.064Z,27.88
2023-03-21T18:06:32.527Z,28.60
2023-03-21T18:09:07.028Z,28.75
2023-03-21T18:11:35.739Z,28.80
2023-03-21T18:14:15.766Z,32.50
2023-03-21T18:16:47.644Z,23.23
2023-03-21T18:19:16.348Z,19.23
2023-03-21T18:21:46.691Z,19.95
2023-03-21T18:24:16.675Z,15.05
2023-03-21T18:26:46.168Z,14.75
2023-03-21T18:32:09.270Z,16.08
2023-03-21T18:34:39.712Z,16.30
2023-03-21T18:37:09.995Z,23.40
2023-03-21T18:39:39.805Z,18.90
2023-03-21T18:42:16.711Z,26.38
2023-03-21T18:44:48.034Z,30.38
2023-03-21T18:47:18.683Z,40.33
2023-03-21T18:50:13.660Z,41.75
2023-03-21T18:52:36.712Z,41.45
2023-03-21T18:55:06.499Z,36.25
2023-03-21T18:57:38.279Z,38.72
2023-03-21T19:00:13.167Z,38.90
2023-03-21T19:02:47.672Z,37.67
2023-03-21T19:05:18.818Z,36.72
2023-03-21T19:07:48.337Z,32.40
2023-03-21T19:10:19.837Z,30.80
2023-03-21T19:12:50.128Z,26.67
2023-03-21T19:15:21.461Z,23.25
2023-03-21T19:20:44.846Z,31.55
2023-03-21T19:23:14.650Z,40.45
2023-03-21T19:25:44.056Z,48.30
2023-03-21T19:28:12.624Z,41.75
2023-03-21T19:30:49.688Z,35.95
2023-03-21T19:33:21.340Z,36.00
2023-03-21T19:36:08.975Z,35.53
2023-03-21T19:38:39.706Z,34.15
2023-03-21T19:41:08.308Z,54.97
2023-03-21T19:43:36.933Z,67.47
2023-03-21T19:46:05.853Z,54.00
2023-03-21T19:48:38.079Z,67.95
2023-03-21T19:51:36.340Z,51.60
2023-03-21T19:53:55.596Z,63.92
2023-03-21T19:56:27.097Z,57.58
2023-03-21T19:58:56.858Z,125.20
2023-03-21T20:01:26.536Z,120.07
2023-03-21T20:03:58.379Z,215.23
2023-03-21T20:06:27.668Z,168.43
2023-03-21T20:11:45.885Z,83.47
2023-03-21T20:14:14.910Z,66.88
2023-03-21T20:16:43.960Z,75.82
2023-03-21T20:19:16.326Z,67.93
2023-03-21T20:21:52.244Z,86.90
2023-03-21T20:24:23.593Z,109.72
2023-03-21T20:26:53.807Z,97.07
2023-03-21T20:32:11.472Z,83.25
2023-03-21T20:34:44.308Z,62.08
2023-03-21T20:37:13.120Z,67.63
2023-03-21T20:39:42.631Z,62.30
2023-03-21T20:42:11.442Z,46.83
2023-03-21T20:44:59.273Z,79.68
2023-03-21T20:47:29.880Z,60.85
2023-03-21T20:49:59.956Z,69.75
2023-03-21T20:52:54.908Z,53.97
2023-03-21T20:55:18.912Z,48.13
2023-03-21T20:57:49.018Z,53.42
2023-03-21T21:00:18.697Z,55.88
2023-03-21T21:02:50.054Z,57.20
2023-03-21T21:05:27.777Z,49.35
2023-03-21T21:07:57.510Z,46.78
2023-03-21T21:10:26.778Z,57.60
2023-03-21T21:12:55.804Z,37.10
2023-03-21T21:15:24.417Z,35.90
2023-03-21T21:18:05.288Z,47.65
2023-03-21T21:20:36.344Z,44.42
2023-03-21T21:23:06.296Z,48.90
2023-03-21T21:25:35.986Z,44.00
2023-03-21T21:28:09.429Z,49.60
2023-03-21T21:30:41.819Z,45.97
2023-03-21T21:33:10.889Z,43.28
2023-03-21T21:35:47.603Z,41.20
2023-03-21T21:38:17.663Z,38.72
2023-03-21T21:40:46.811Z,70.22
2023-03-21T21:43:17.273Z,59.67
2023-03-21T21:45:46.387Z,64.45
2023-03-21T21:48:15.378Z,61.30
2023-03-21T21:50:47.547Z,69.85
2023-03-21T21:53:19.353Z,52.63
2023-03-21T21:55:48.786Z,51.70
2023-03-21T21:58:19.683Z,56.88
2023-03-21T22:00:50.319Z,52.20
2023-03-21T22:03:22.619Z,53.05
2023-03-21T22:05:54.686Z,48.05
2023-03-21T22:08:23.448Z,56.75
2023-03-21T22:10:52.880Z,41.28
2023-03-21T22:13:21.863Z,41.95
2023-03-21T22:15:51.016Z,43.58
2023-03-21T22:18:19.609Z,50.60
2023-03-21T22:20:48.494Z,62.50
2023-03-21T22:23:19.677Z,43.95
2023-03-21T22:25:51.902Z,45.40
2023-03-21T22:28:22.341Z,39.17
2023-03-21T22:30:51.401Z,39.65
2023-03-21T22:33:22.326Z,43.00
2023-03-21T22:35:51.724Z,39.10
2023-03-21T22:38:24.482Z,46.55
2023-03-21T22:40:56.891Z,37.63
2023-03-21T22:43:26.678Z,42.30
2023-03-21T22:45:57.288Z,42.47
2023-03-21T22:48:26.225Z,44.63
2023-03-21T22:50:55.294Z,43.15
2023-03-21T22:53:25.653Z,43.85
2023-03-21T22:55:54.347Z,53.78
2023-03-21T22:58:23.752Z,48.92
2023-03-21T23:00:52.384Z,32.97
2023-03-21T23:03:21.105Z,35.95
2023-03-21T23:05:49.546Z,35.80
2023-03-21T23:08:18.180Z,32.60
2023-03-21T23:10:47.919Z,36.88
2023-03-21T23:13:17.125Z,33.75
2023-03-21T23:15:45.850Z,32.30
2023-03-21T23:18:15.181Z,32.42
2023-03-21T23:20:43.720Z,34.85
2023-03-21T23:23:14.113Z,34.28
2023-03-21T23:25:43.084Z,37.08
2023-03-21T23:28:13.498Z,32.08
2023-03-21T23:30:42.080Z,38.30
2023-03-21T23:33:10.776Z,39.25
2023-03-21T23:35:39.605Z,37.13
2023-03-21T23:38:08.606Z,35.97
2023-03-21T23:40:40.434Z,41.70
2023-03-21T23:43:08.938Z,38.95
2023-03-21T23:45:38.780Z,36.33
2023-03-21T23:48:07.631Z,36.85
2023-03-21T23:50:36.305Z,32.70
2023-03-21T23:53:04.704Z,30.42
2023-03-21T23:55:33.413Z,32.80
2023-03-21T23:58:01.873Z,31.27
